createdAt,value
2022-09-06T00:00:53.885Z,51.111301
2022-09-06T00:01:54.001Z,51.111290
2022-09-06T00:02:53.898Z,51.111279
2022-09-06T00:03:53.936Z,51.111248
2022-09-06T00:04:53.853Z,51.111248
2022-09-06T00:05:53.891Z,51.111240
2022-09-06T00:06:54.543Z,51.111237
2022-09-06T00:07:53.849Z,51.111244
2022-09-06T00:08:53.852Z,51.111282
2022-09-06T00:09:53.833Z,51.111290
2022-09-06T00:10:56.781Z,51.111301
2022-09-06T00:11:54.893Z,51.111279
2022-09-06T00:12:53.835Z,51.111290
2022-09-06T00:13:53.814Z,51.111309
2022-09-06T00:14:53.813Z,51.111305
2022-09-06T00:15:54.055Z,51.111263
2022-09-06T00:16:53.851Z,51.111279
2022-09-06T00:17:53.810Z,51.111256
2022-09-06T00:18:53.825Z,51.111256
2022-09-06T00:19:53.741Z,51.111244
2022-09-06T00:20:53.707Z,51.111256
2022-09-06T00:21:53.791Z,51.111275
2022-09-06T00:22:53.698Z,51.111229
2022-09-06T00:23:53.664Z,51.111263
2022-09-06T00:24:54.176Z,51.111298
2022-09-06T00:25:53.737Z,51.111305
2022-09-06T00:26:53.773Z,51.111305
2022-09-06T00:27:53.714Z,51.111279
2022-09-06T00:28:53.711Z,51.111290
2022-09-06T00:29:53.709Z,51.111275
2022-09-06T00:30:53.752Z,51.111271
2022-09-06T00:31:53.712Z,51.111259
2022-09-06T00:32:54.744Z,51.111214
2022-09-06T00:33:53.691Z,51.111259
2022-09-06T00:34:53.687Z,51.111233
2022-09-06T00:35:53.676Z,51.111271
2022-09-06T00:36:53.690Z,51.111256
2022-09-06T00:37:53.705Z,51.111252
2022-09-06T00:38:53.657Z,51.111256
2022-09-06T00:39:53.695Z,51.111271
2022-09-06T00:40:53.626Z,51.111267
2022-09-06T00:41:53.596Z,51.111263
2022-09-06T00:42:54.584Z,51.111237
2022-09-06T00:43:53.618Z,51.111248
2022-09-06T00:44:53.548Z,51.111286
2022-09-06T00:45:53.583Z,51.111267
2022-09-06T00:46:53.534Z,51.111263
2022-09-06T00:47:53.868Z,51.111244
2022-09-06T00:48:53.498Z,51.111240
2022-09-06T00:49:54.590Z,51.111244
2022-09-06T00:50:53.511Z,51.111267
2022-09-06T00:51:53.596Z,51.111271
2022-09-06T00:52:53.538Z,51.111259
2022-09-06T00:53:53.599Z,51.111259
2022-09-06T00:54:53.514Z,51.111233
2022-09-06T00:55:53.514Z,51.111221
2022-09-06T00:56:53.521Z,51.111214
2022-09-06T00:57:53.527Z,51.111229
2022-09-06T00:58:53.527Z,51.111229
2022-09-06T00:59:53.482Z,51.111252
2022-09-06T01:00:53.527Z,51.111229
2022-09-06T01:01:53.656Z,51.111244
2022-09-06T01:02:53.571Z,51.111225
2022-09-06T01:03:53.509Z,51.111248
2022-09-06T01:04:53.506Z,51.111195
2022-09-06T01:05:54.643Z,51.111244
2022-09-06T01:06:55.027Z,51.111279
2022-09-06T01:07:54.433Z,51.111217
2022-09-06T01:08:53.509Z,51.111233
2022-09-06T01:09:53.452Z,51.111290
2022-09-06T01:10:53.368Z,51.111191
2022-09-06T01:11:53.339Z,51.111206
2022-09-06T01:12:53.381Z,51.111168
2022-09-06T01:13:53.401Z,51.111149
2022-09-06T01:14:53.433Z,51.111160
2022-09-06T01:15:53.420Z,51.111217
2022-09-06T01:16:53.415Z,51.111252
2022-09-06T01:17:53.401Z,51.111359
2022-09-06T01:18:53.394Z,51.111225
2022-09-06T01:19:53.432Z,51.111225
2022-09-06T01:20:53.395Z,51.111214
2022-09-06T01:21:53.345Z,51.111202
2022-09-06T01:22:53.346Z,51.111214
2022-09-06T01:23:53.342Z,51.111233
2022-09-06T01:24:53.362Z,51.111210
2022-09-06T01:25:53.347Z,51.111340
2022-09-06T01:26:53.329Z,51.111248
2022-09-06T01:27:53.313Z,51.111244
2022-09-06T01:28:53.320Z,51.111244
2022-09-06T01:29:53.314Z,51.111244
2022-09-06T01:30:53.563Z,51.111244
2022-09-06T01:31:53.317Z,51.111263
2022-09-06T01:32:53.247Z,51.111320
2022-09-06T01:33:53.279Z,51.111324
2022-09-06T01:34:53.276Z,51.111351
2022-09-06T01:35:53.270Z,51.111336
2022-09-06T01:37:09.090Z,51.111206
2022-09-06T01:37:55.295Z,51.111309
2022-09-06T01:38:53.163Z,51.111320
2022-09-06T01:39:53.190Z,51.111370
2022-09-06T01:40:53.112Z,51.111320
2022-09-06T01:41:53.264Z,51.111317
2022-09-06T01:42:53.104Z,51.111382
2022-09-06T01:43:53.107Z,51.111240
2022-09-06T01:44:53.191Z,51.111191
2022-09-06T01:45:53.200Z,51.111401
2022-09-06T01:46:53.224Z,51.111336
2022-09-06T01:47:53.144Z,51.111370
2022-09-06T01:48:53.175Z,51.111397
2022-09-06T01:49:53.155Z,51.111374
2022-09-06T01:50:53.180Z,51.111408
2022-09-06T01:51:53.419Z,51.111465
2022-09-06T01:52:53.164Z,51.111404
2022-09-06T01:53:53.098Z,51.111336
2022-09-06T01:54:53.157Z,51.111298
2022-09-06T01:55:53.139Z,51.111443
2022-09-06T01:56:53.094Z,51.111397
2022-09-06T01:57:53.149Z,51.111454
2022-09-06T01:58:52.985Z,51.111389
2022-09-06T01:59:53.001Z,51.111362
2022-09-06T02:00:53.007Z,51.111187
2022-09-06T02:01:53.049Z,51.111111
2022-09-06T02:02:53.102Z,51.111095
2022-09-06T02:03:52.985Z,51.111122
2022-09-06T02:04:52.974Z,51.111168
2022-09-06T02:05:52.956Z,51.111237
2022-09-06T02:06:52.944Z,51.111237
2022-09-06T02:07:53.072Z,51.111210
2022-09-06T02:08:53.025Z,51.111164
2022-09-06T02:09:53.004Z,51.111237
2022-09-06T02:10:52.992Z,51.111214
2022-09-06T02:11:52.998Z,51.111198
2022-09-06T02:12:53.055Z,51.111256
2022-09-06T02:13:53.049Z,51.111217
2022-09-06T02:14:52.970Z,51.111290
2022-09-06T02:15:53.004Z,51.111305
2022-09-06T02:16:53.042Z,51.111252
2022-09-06T02:17:53.056Z,51.111271
2022-09-06T02:18:52.921Z,51.111282
2022-09-06T02:19:52.929Z,51.111328
2022-09-06T02:20:52.925Z,51.111370
2022-09-06T02:21:52.920Z,51.111340
2022-09-06T02:22:52.970Z,51.111286
2022-09-06T02:23:52.894Z,51.111256
2022-09-06T02:24:52.890Z,51.111294
2022-09-06T02:25:52.864Z,51.111301
2022-09-06T02:26:52.903Z,51.111309
2022-09-06T02:27:52.941Z,51.111286
2022-09-06T02:28:52.782Z,51.111267
2022-09-06T02:29:52.779Z,51.111294
2022-09-06T02:30:52.830Z,51.111267
2022-09-06T02:31:59.647Z,51.111256
2022-09-06T02:32:52.788Z,51.111259
2022-09-06T02:33:52.780Z,51.111256
2022-09-06T02:34:52.750Z,51.111259
2022-09-06T02:35:52.844Z,51.111294
2022-09-06T02:36:52.879Z,51.111252
2022-09-06T02:37:52.828Z,51.111248
2022-09-06T02:38:52.843Z,51.111240
2022-09-06T02:39:52.894Z,51.111275
2022-09-06T02:40:52.850Z,51.111305
2022-09-06T02:41:52.814Z,51.111298
2022-09-06T02:42:52.823Z,51.111313
2022-09-06T02:43:52.813Z,51.111275
2022-09-06T02:44:52.776Z,51.111263
2022-09-06T02:45:52.821Z,51.111214
2022-09-06T02:46:56.988Z,51.111256
2022-09-06T02:47:53.810Z,51.111271
2022-09-06T02:48:52.722Z,51.111267
2022-09-06T02:49:52.761Z,51.111271
2022-09-06T02:50:52.745Z,51.111267
2022-09-06T02:51:52.641Z,51.111263
2022-09-06T02:52:52.668Z,51.111279
2022-09-06T02:53:53.665Z,51.111267
2022-09-06T02:54:52.624Z,51.111271
2022-09-06T02:55:52.693Z,51.111256
2022-09-06T02:56:52.755Z,51.111256
2022-09-06T02:57:52.575Z,51.111279
2022-09-06T02:58:52.631Z,51.111267
2022-09-06T02:59:52.615Z,51.111275
2022-09-06T03:00:52.683Z,51.111271
2022-09-06T03:01:52.725Z,51.111279
2022-09-06T03:02:52.655Z,51.111271
2022-09-06T03:03:52.723Z,51.111279
2022-09-06T03:04:52.609Z,51.111256
2022-09-06T03:05:52.611Z,51.111282
2022-09-06T03:06:52.603Z,51.111301
2022-09-06T03:07:52.587Z,51.111275
2022-09-06T03:08:52.625Z,51.111275
2022-09-06T03:09:52.623Z,51.111282
2022-09-06T03:10:52.588Z,51.111294
2022-09-06T03:11:52.567Z,51.111294
2022-09-06T03:12:52.565Z,51.111286
2022-09-06T03:13:52.568Z,51.111259
2022-09-06T03:14:54.997Z,51.111275
2022-09-06T03:15:53.561Z,51.111279
2022-09-06T03:16:52.612Z,51.111282
2022-09-06T03:17:52.464Z,51.111275
2022-09-06T03:18:52.452Z,51.111267
2022-09-06T03:19:52.503Z,51.111282
2022-09-06T03:20:52.462Z,51.111290
2022-09-06T03:21:52.428Z,51.111305
2022-09-06T03:22:53.551Z,51.111317
2022-09-06T03:23:52.426Z,51.111298
2022-09-06T03:24:52.555Z,51.111301
2022-09-06T03:25:52.461Z,51.111305
2022-09-06T03:26:52.515Z,51.111290
2022-09-06T03:27:52.470Z,51.111282
2022-09-06T03:28:52.426Z,51.111290
2022-09-06T03:29:52.444Z,51.111286
2022-09-06T03:30:52.558Z,51.111279
2022-09-06T03:31:52.443Z,51.111294
2022-09-06T03:32:52.518Z,51.111279
2022-09-06T03:33:52.427Z,51.111259
2022-09-06T03:34:52.391Z,51.111248
2022-09-06T03:35:52.425Z,51.111256
2022-09-06T03:36:52.400Z,51.111259
2022-09-06T03:37:52.428Z,51.111301
2022-09-06T03:38:52.401Z,51.111317
2022-09-06T03:39:52.426Z,51.111309
2022-09-06T03:40:52.389Z,51.111313
2022-09-06T03:41:52.388Z,51.111290
2022-09-06T03:42:52.371Z,51.111294
2022-09-06T03:43:52.387Z,51.111324
2022-09-06T03:44:52.344Z,51.111305
2022-09-06T03:45:52.432Z,51.111294
2022-09-06T03:46:52.333Z,51.111267
2022-09-06T03:47:52.232Z,51.111282
2022-09-06T03:48:52.217Z,51.111294
2022-09-06T03:49:52.353Z,51.111275
2022-09-06T03:50:52.295Z,51.111275
2022-09-06T03:51:52.256Z,51.111244
2022-09-06T03:52:52.289Z,51.111248
2022-09-06T03:53:52.278Z,51.111263
2022-09-06T03:54:52.296Z,51.111282
2022-09-06T03:55:52.246Z,51.111309
2022-09-06T03:56:52.479Z,51.111298
2022-09-06T03:57:52.229Z,51.111309
2022-09-06T03:58:52.226Z,51.111267
2022-09-06T03:59:52.228Z,51.111294
2022-09-06T04:00:52.313Z,51.111298
2022-09-06T04:01:52.196Z,51.111275
2022-09-06T04:02:52.270Z,51.111317
2022-09-06T04:03:52.219Z,51.111290
2022-09-06T04:04:52.167Z,51.111282
2022-09-06T04:05:52.160Z,51.111328
2022-09-06T04:06:52.235Z,51.111290
2022-09-06T04:07:52.239Z,51.111248
2022-09-06T04:08:52.264Z,51.111237
2022-09-06T04:09:52.203Z,51.111290
2022-09-06T04:10:52.211Z,51.111282
2022-09-06T04:11:52.044Z,51.111279
2022-09-06T04:12:52.059Z,51.111279
2022-09-06T04:13:53.856Z,51.111252
2022-09-06T04:14:53.029Z,51.111313
2022-09-06T04:15:52.048Z,51.111279
2022-09-06T04:16:52.169Z,51.111286
2022-09-06T04:17:52.145Z,51.111343
2022-09-06T04:18:52.112Z,51.111221
2022-09-06T04:19:52.073Z,51.111206
2022-09-06T04:20:52.106Z,51.111279
2022-09-06T04:21:52.083Z,51.111290
2022-09-06T04:22:52.096Z,51.111275
2022-09-06T04:23:52.079Z,51.111317
2022-09-06T04:24:52.069Z,51.111397
2022-09-06T04:25:52.057Z,51.111324
2022-09-06T04:26:52.068Z,51.111259
2022-09-06T04:27:52.114Z,51.111187
2022-09-06T04:28:52.022Z,51.111248
2022-09-06T04:29:52.072Z,51.111237
2022-09-06T04:30:52.048Z,51.111271
2022-09-06T04:31:52.186Z,51.111294
2022-09-06T04:32:52.043Z,51.111217
2022-09-06T04:33:52.097Z,51.111191
2022-09-06T04:34:51.977Z,51.111130
2022-09-06T04:35:52.093Z,51.111149
2022-09-06T04:36:51.971Z,51.111195
2022-09-06T04:37:51.884Z,51.111179
2022-09-06T04:38:51.900Z,51.111176
2022-09-06T04:39:51.968Z,51.111256
2022-09-06T04:40:51.867Z,51.111206
2022-09-06T04:41:51.965Z,51.111229
2022-09-06T04:42:51.930Z,51.111233
2022-09-06T04:43:51.956Z,51.111225
2022-09-06T04:44:51.936Z,51.111217
2022-09-06T04:45:51.994Z,51.111233
2022-09-06T04:46:51.927Z,51.111244
2022-09-06T04:47:51.922Z,51.111244
2022-09-06T04:48:51.922Z,51.111225
2022-09-06T04:49:51.936Z,51.111244
2022-09-06T04:50:51.882Z,51.111252
2022-09-06T04:51:51.783Z,51.111259
2022-09-06T04:52:51.945Z,51.111248
2022-09-06T04:53:51.895Z,51.111225
2022-09-06T04:54:51.974Z,51.111229
2022-09-06T04:55:51.871Z,51.111187
2022-09-06T04:56:51.970Z,51.111183
2022-09-06T04:57:51.867Z,51.111225
2022-09-06T04:58:51.849Z,51.111237
2022-09-06T04:59:52.177Z,51.111240
2022-09-06T05:00:51.773Z,51.111233
2022-09-06T05:01:51.775Z,51.111240
2022-09-06T05:02:51.757Z,51.111259
2022-09-06T05:03:56.162Z,51.111256
2022-09-06T05:04:53.775Z,51.111294
2022-09-06T05:05:51.697Z,51.111279
2022-09-06T05:06:51.802Z,51.111237
2022-09-06T05:07:51.667Z,51.111229
2022-09-06T05:08:51.700Z,51.111233
2022-09-06T05:09:51.674Z,51.111244
2022-09-06T05:10:51.726Z,51.111244
2022-09-06T05:11:51.652Z,51.111225
2022-09-06T05:12:51.796Z,51.111259
2022-09-06T05:13:51.788Z,51.111237
2022-09-06T05:14:51.749Z,51.111233
2022-09-06T05:15:51.799Z,51.111256
2022-09-06T05:16:51.846Z,51.111328
2022-09-06T05:17:51.762Z,51.111294
2022-09-06T05:18:51.590Z,51.111279
2022-09-06T05:19:51.764Z,51.111244
2022-09-06T05:20:51.743Z,51.111244
2022-09-06T05:21:51.727Z,51.111244
2022-09-06T05:22:51.737Z,51.111229
2022-09-06T05:23:54.362Z,51.111210
2022-09-06T05:24:52.692Z,51.111290
2022-09-06T05:25:51.649Z,51.111294
2022-09-06T05:26:51.691Z,51.111217
2022-09-06T05:27:51.533Z,51.111217
2022-09-06T05:28:51.543Z,51.111259
2022-09-06T05:29:51.661Z,51.111248
2022-09-06T05:30:51.512Z,51.111217
2022-09-06T05:31:51.739Z,51.111237
2022-09-06T05:32:51.674Z,51.111221
2022-09-06T05:33:51.648Z,51.111210
2022-09-06T05:34:51.614Z,51.111244
2022-09-06T05:35:51.691Z,51.111240
2022-09-06T05:36:51.869Z,51.111256
2022-09-06T05:37:51.893Z,51.111217
2022-09-06T05:38:51.620Z,51.111252
2022-09-06T05:39:51.586Z,51.111263
2022-09-06T05:40:51.619Z,51.111248
2022-09-06T05:41:51.526Z,51.111252
2022-09-06T05:42:51.596Z,51.111221
2022-09-06T05:43:51.528Z,51.111248
2022-09-06T05:44:51.393Z,51.111279
2022-09-06T05:45:51.476Z,51.111256
2022-09-06T05:46:51.407Z,51.111259
2022-09-06T05:47:51.459Z,51.111237
2022-09-06T05:48:51.498Z,51.111252
2022-09-06T05:49:51.531Z,51.111233
2022-09-06T05:50:51.475Z,51.111233
2022-09-06T05:51:51.369Z,51.111217
2022-09-06T05:52:51.587Z,51.111256
2022-09-06T05:53:51.496Z,51.111229
2022-09-06T05:54:51.498Z,51.111256
2022-09-06T05:55:51.449Z,51.111267
2022-09-06T05:56:51.500Z,51.111259
2022-09-06T05:57:51.410Z,51.111240
2022-09-06T05:58:51.483Z,51.111244
2022-09-06T05:59:51.443Z,51.111221
2022-09-06T06:00:51.468Z,51.111221
2022-09-06T06:01:51.553Z,51.111233
2022-09-06T06:02:51.386Z,51.111252
2022-09-06T06:03:51.499Z,51.111259
2022-09-06T06:04:51.549Z,51.111237
2022-09-06T06:05:51.256Z,51.111233
2022-09-06T06:06:51.285Z,51.111252
2022-09-06T07:27:48.718Z,51.111294
2022-09-06T07:28:42.439Z,51.111256
2022-09-06T07:29:40.381Z,51.111256
2022-09-06T07:30:40.309Z,51.111263
2022-09-06T07:32:42.334Z,51.111240
2022-09-06T07:33:40.285Z,51.111244
2022-09-06T07:34:40.247Z,51.111160
2022-09-06T07:35:40.351Z,51.111057
2022-09-06T07:36:40.420Z,51.111053
2022-09-06T07:37:40.423Z,51.111191
2022-09-06T07:38:40.415Z,51.111172
2022-09-06T07:39:40.375Z,51.111210
2022-09-06T07:40:40.413Z,51.111233
2022-09-06T07:41:40.365Z,51.111202
2022-09-06T07:42:40.308Z,51.111176
2022-09-06T07:43:40.351Z,51.111176
2022-09-06T07:44:41.717Z,51.111160
2022-09-06T07:45:40.296Z,51.111202
2022-09-06T07:46:40.329Z,51.111275
2022-09-06T07:48:10.031Z,51.111332
2022-09-06T07:48:42.241Z,51.111252
2022-09-06T07:49:40.281Z,51.111206
2022-09-06T07:50:48.887Z,51.111233
2022-09-06T07:51:42.169Z,51.111187
2022-09-06T07:53:42.224Z,51.111259
2022-09-06T07:54:40.115Z,51.111324
2022-09-06T07:55:40.385Z,51.111271
2022-09-06T07:56:40.132Z,51.111256
2022-09-06T07:57:40.147Z,51.111317
2022-09-06T07:58:40.125Z,51.111229
2022-09-06T07:59:42.910Z,51.111248
2022-09-06T08:00:41.445Z,51.111210
2022-09-06T08:01:40.229Z,51.111233
2022-09-06T08:02:40.261Z,51.111259
2022-09-06T08:03:40.190Z,51.111267
2022-09-06T08:04:40.171Z,51.111248
2022-09-06T08:07:42.248Z,51.111286
2022-09-06T08:09:42.029Z,51.111248
2022-09-06T08:10:40.109Z,51.111248
2022-09-06T08:11:40.142Z,51.111267
2022-09-06T08:12:40.131Z,51.111237
2022-09-06T08:13:40.120Z,51.111244
2022-09-06T08:14:40.143Z,51.111229
2022-09-06T08:15:41.688Z,51.111202
2022-09-06T08:16:41.182Z,51.111233
2022-09-06T08:17:40.107Z,51.111237
2022-09-06T08:18:40.107Z,51.111256
2022-09-06T08:19:40.031Z,51.111225
2022-09-06T08:20:39.944Z,51.111237
2022-09-06T08:21:39.924Z,51.111244
2022-09-06T08:22:39.940Z,51.111206
2022-09-06T08:23:39.923Z,51.111221
2022-09-06T08:24:39.902Z,51.111229
2022-09-06T08:25:39.943Z,51.111210
2022-09-06T08:26:39.918Z,51.111248
2022-09-06T08:27:39.901Z,51.111237
2022-09-06T08:28:39.892Z,51.111252
2022-09-06T08:29:39.989Z,51.111252
2022-09-06T08:30:40.027Z,51.111240
2022-09-06T08:31:40.068Z,51.111263
2022-09-06T08:32:39.950Z,51.111248
2022-09-06T08:33:39.985Z,51.111259
2022-09-06T08:34:40.144Z,51.111259
2022-09-06T08:35:39.981Z,51.111263
2022-09-06T08:36:41.023Z,51.111263
2022-09-06T08:37:39.984Z,51.111279
2022-09-06T08:38:39.957Z,51.111290
2022-09-06T08:39:40.041Z,51.111271
2022-09-06T08:40:39.948Z,51.111275
2022-09-06T08:41:39.923Z,51.111259
2022-09-06T08:42:39.886Z,51.111248
2022-09-06T08:43:40.002Z,51.111248
2022-09-06T08:44:55.881Z,51.111252
2022-09-06T08:45:41.931Z,51.111275
2022-09-06T08:46:39.775Z,51.111259
2022-09-06T08:47:39.773Z,51.111248
2022-09-06T08:48:39.796Z,51.111240
2022-09-06T08:49:39.910Z,51.111225
2022-09-06T08:50:39.787Z,51.111225
2022-09-06T08:51:39.765Z,51.111229
2022-09-06T08:52:49.414Z,51.111256
2022-09-06T08:53:41.698Z,51.111221
2022-09-06T08:54:39.696Z,51.111229
2022-09-06T08:55:39.838Z,51.111240
2022-09-06T08:56:39.804Z,51.111240
2022-09-06T08:57:40.521Z,51.111248
2022-09-06T08:58:40.797Z,51.111263
2022-09-06T08:59:39.793Z,51.111248
2022-09-06T09:00:39.895Z,51.111275
2022-09-06T09:01:39.846Z,51.111271
2022-09-06T09:02:39.789Z,51.111282
2022-09-06T09:03:39.775Z,51.111271
2022-09-06T09:04:39.823Z,51.111256
2022-09-06T09:05:39.780Z,51.111259
2022-09-06T09:06:39.787Z,51.111237
2022-09-06T09:07:39.632Z,51.111267
2022-09-06T09:08:39.600Z,51.111282
2022-09-06T09:09:40.583Z,51.111252
2022-09-06T09:10:39.581Z,51.111233
2022-09-06T09:11:39.980Z,51.111267
2022-09-06T09:12:39.587Z,51.111340
2022-09-06T09:13:39.593Z,51.111336
2022-09-06T09:14:39.537Z,51.111313
2022-09-06T09:15:40.554Z,51.111301
2022-09-06T09:16:40.659Z,51.111286
2022-09-06T09:17:39.543Z,51.111279
2022-09-06T09:18:39.660Z,51.111320
2022-09-06T09:19:39.641Z,51.111309
2022-09-06T09:20:39.613Z,51.111298
2022-09-06T09:21:39.581Z,51.111267
2022-09-06T09:22:39.645Z,51.111298
2022-09-06T09:23:39.609Z,51.111301
2022-09-06T09:24:39.596Z,51.111263
2022-09-06T09:25:39.628Z,51.111267
2022-09-06T09:26:39.645Z,51.111309
2022-09-06T09:27:39.972Z,51.111282
2022-09-06T09:28:39.588Z,51.111282
2022-09-06T09:29:39.872Z,51.111267
2022-09-06T09:31:41.653Z,51.111301
2022-09-06T09:32:39.618Z,51.111298
2022-09-06T09:33:39.430Z,51.111294
2022-09-06T09:34:39.446Z,51.111271
2022-09-06T09:35:39.400Z,51.111217
2022-09-06T09:36:39.433Z,51.111263
2022-09-06T09:37:47.662Z,51.111275
2022-09-06T09:38:41.487Z,51.111378
2022-09-06T09:39:39.522Z,51.111313
2022-09-06T09:40:39.495Z,51.111252
2022-09-06T09:41:39.544Z,51.111313
2022-09-06T09:42:39.482Z,51.111301
2022-09-06T09:43:39.538Z,51.111271
2022-09-06T09:44:39.458Z,51.111336
2022-09-06T09:45:39.470Z,51.111336
2022-09-06T09:46:39.381Z,51.111385
2022-09-06T09:47:39.426Z,51.111378
2022-09-06T09:48:39.521Z,51.111366
2022-09-06T09:49:39.378Z,51.111370
2022-09-06T09:50:39.444Z,51.111336
2022-09-06T09:51:39.383Z,51.111343
2022-09-06T09:52:39.487Z,51.111320
2022-09-06T09:53:39.384Z,51.111305
2022-09-06T09:54:39.359Z,51.111320
2022-09-06T09:55:39.271Z,51.111324
2022-09-06T09:56:39.307Z,51.111301
2022-09-06T09:57:39.431Z,51.111343
2022-09-06T09:58:39.328Z,51.111343
2022-09-06T09:59:39.360Z,51.111290
2022-09-06T10:00:39.392Z,51.111290
2022-09-06T10:01:39.393Z,51.111336
2022-09-06T10:02:39.346Z,51.111309
2022-09-06T10:05:40.299Z,51.111343
2022-09-06T10:07:41.150Z,51.111351
2022-09-06T10:08:39.290Z,51.111351
2022-09-06T10:09:39.327Z,51.111332
2022-09-06T10:10:39.303Z,51.111347
2022-09-06T10:11:39.285Z,51.111366
2022-09-06T10:12:39.231Z,51.111362
2022-09-06T10:13:39.320Z,51.111359
2022-09-06T10:14:39.645Z,51.111355
2022-09-06T10:15:39.441Z,51.111305
2022-09-06T10:16:39.133Z,51.111305
2022-09-06T10:17:39.115Z,51.111340
2022-09-06T10:18:39.083Z,51.111343
2022-09-06T10:19:39.285Z,51.111458
2022-09-06T10:20:39.124Z,51.111378
2022-09-06T10:21:39.078Z,51.111343
2022-09-06T10:22:39.210Z,51.111343
2022-09-06T10:24:41.114Z,51.111305
2022-09-06T10:25:39.185Z,51.111301
2022-09-06T10:26:39.187Z,51.111324
2022-09-06T10:27:45.707Z,51.111374
2022-09-06T10:28:41.087Z,51.111374
2022-09-06T10:29:39.145Z,51.111347
2022-09-06T10:30:39.171Z,51.111305
2022-09-06T10:31:39.248Z,51.111309
2022-09-06T10:32:39.130Z,51.111286
2022-09-06T10:34:11.100Z,51.111256
2022-09-06T10:34:38.969Z,51.111408
2022-09-06T10:36:11.166Z,51.111370
2022-09-06T10:37:11.076Z,51.111359
2022-09-06T10:37:38.997Z,51.111313
2022-09-06T10:38:39.119Z,51.111317
2022-09-06T10:39:39.076Z,51.111317
2022-09-06T10:40:39.014Z,51.111362
2022-09-06T10:41:38.964Z,51.111271
2022-09-06T10:42:38.907Z,51.111252
2022-09-06T10:43:39.109Z,51.111244
2022-09-06T10:44:39.038Z,51.111252
2022-09-06T10:45:39.013Z,51.111248
2022-09-06T10:46:39.190Z,51.111237
2022-09-06T10:47:39.062Z,51.111240
2022-09-06T10:48:38.983Z,51.111233
2022-09-06T10:49:38.970Z,51.111244
2022-09-06T10:50:38.979Z,51.111252
2022-09-06T10:51:38.864Z,51.111259
2022-09-06T10:52:38.996Z,51.111244
2022-09-06T10:53:38.974Z,51.111267
2022-09-06T10:54:38.961Z,51.111263
2022-09-06T10:55:39.286Z,51.111225
2022-09-06T10:56:38.853Z,51.111233
2022-09-06T10:59:40.855Z,51.111248
2022-09-06T11:00:38.788Z,51.111229
2022-09-06T11:01:39.084Z,51.111256
2022-09-06T11:02:39.251Z,51.111290
2022-09-06T11:03:56.724Z,51.111271
2022-09-06T11:05:40.743Z,51.111286
2022-09-06T11:06:38.863Z,51.111282
2022-09-06T11:07:39.443Z,51.111259
2022-09-06T11:08:46.359Z,51.111256
2022-09-06T11:09:40.843Z,51.111244
2022-09-06T11:10:38.841Z,51.111237
2022-09-06T11:11:38.893Z,51.111259
2022-09-06T11:12:38.865Z,51.111252
2022-09-06T11:13:38.888Z,51.111248
2022-09-06T11:14:38.898Z,51.111252
2022-09-06T11:15:38.881Z,51.111267
2022-09-06T11:16:38.964Z,51.111279
2022-09-06T11:17:38.821Z,51.111252
2022-09-06T11:18:38.982Z,51.111248
2022-09-06T11:19:38.824Z,51.111240
2022-09-06T11:20:38.699Z,51.111252
2022-09-06T11:21:38.989Z,51.111237
2022-09-06T11:22:39.382Z,51.111237
2022-09-06T11:23:39.019Z,51.111240
2022-09-06T11:24:38.775Z,51.111240
2022-09-06T11:25:38.971Z,51.111240
2022-09-06T11:26:38.920Z,51.111259
2022-09-06T11:27:38.938Z,51.111256
2022-09-06T11:28:38.992Z,51.111237
2022-09-06T11:29:39.026Z,51.111240
2022-09-06T11:30:38.752Z,51.111248
2022-09-06T11:32:40.803Z,51.111259
2022-09-06T11:33:38.653Z,51.111252
2022-09-06T11:34:38.595Z,51.111263
2022-09-06T11:35:38.820Z,51.111225
2022-09-06T11:36:38.574Z,51.111237
2022-09-06T11:37:38.868Z,51.111263
2022-09-06T11:38:38.847Z,51.111271
2022-09-06T11:40:40.694Z,51.111240
2022-09-06T11:41:38.863Z,51.111256
2022-09-06T11:42:38.643Z,51.111259
2022-09-06T11:43:38.750Z,51.111271
2022-09-06T11:44:38.626Z,51.111267
2022-09-06T11:45:38.711Z,51.111267
2022-09-06T11:46:38.652Z,51.111244
2022-09-06T11:47:38.640Z,51.111267
2022-09-06T11:48:38.591Z,51.111263
2022-09-06T11:49:38.642Z,51.111275
2022-09-06T11:50:38.639Z,51.111248
2022-09-06T11:51:38.569Z,51.111275
2022-09-06T11:52:40.061Z,51.111244
2022-09-06T11:53:38.419Z,51.111259
2022-09-06T11:54:38.589Z,51.111256
2022-09-06T11:55:38.509Z,51.111221
2022-09-06T11:56:38.545Z,51.111263
2022-09-06T11:57:38.542Z,51.111263
2022-09-06T11:58:38.484Z,51.111286
2022-09-06T11:59:38.536Z,51.111320
2022-09-06T12:00:38.549Z,51.111340
2022-09-06T12:01:38.479Z,51.111301
2022-09-06T12:02:38.616Z,51.111271
2022-09-06T12:04:08.648Z,51.111256
2022-09-06T12:04:40.391Z,51.111240
2022-09-06T12:05:38.478Z,51.111271
2022-09-06T12:06:38.496Z,51.111271
2022-09-06T12:07:38.463Z,51.111252
2022-09-06T12:08:38.498Z,51.111248
2022-09-06T12:09:38.448Z,51.111263
2022-09-06T12:10:38.436Z,51.111282
2022-09-06T12:11:38.329Z,51.111294
2022-09-06T12:12:38.327Z,51.111290
2022-09-06T12:13:38.286Z,51.111267
2022-09-06T12:14:38.495Z,51.111275
2022-09-06T12:15:38.292Z,51.111275
2022-09-06T12:16:38.247Z,51.111252
2022-09-06T12:17:39.279Z,51.111252
2022-09-06T12:18:38.260Z,51.111286
2022-09-06T12:19:43.438Z,51.111279
2022-09-06T12:20:40.230Z,51.111259
2022-09-06T12:21:38.242Z,51.111256
2022-09-06T12:22:38.359Z,51.111305
2022-09-06T12:23:38.383Z,51.111286
2022-09-06T12:24:38.332Z,51.111290
2022-09-06T12:25:38.350Z,51.111282
2022-09-06T12:26:38.347Z,51.111286
2022-09-06T12:27:38.323Z,51.111248
2022-09-06T12:28:38.287Z,51.111267
2022-09-06T12:29:38.307Z,51.111256
2022-09-06T12:30:38.358Z,51.111263
2022-09-06T12:31:38.344Z,51.111271
2022-09-06T12:32:38.260Z,51.111263
2022-09-06T12:33:38.305Z,51.111275
2022-09-06T12:34:38.296Z,51.111271
2022-09-06T12:36:40.126Z,51.111248
2022-09-06T12:37:38.089Z,51.111256
2022-09-06T12:38:38.106Z,51.111256
2022-09-06T12:39:38.180Z,51.111252
2022-09-06T12:40:38.074Z,51.111275
2022-09-06T12:41:42.953Z,51.111252
2022-09-06T12:42:40.256Z,51.111259
2022-09-06T12:43:38.095Z,51.111244
2022-09-06T12:44:38.394Z,51.111244
2022-09-06T12:45:38.189Z,51.111256
2022-09-06T12:46:38.207Z,51.111256
2022-09-06T12:47:38.179Z,51.111267
2022-09-06T12:48:38.187Z,51.111275
2022-09-06T12:49:38.172Z,51.111256
2022-09-06T12:50:38.197Z,51.111256
2022-09-06T12:51:38.081Z,51.111237
2022-09-06T12:52:38.156Z,51.111240
2022-09-06T12:53:38.139Z,51.111252
2022-09-06T12:54:38.189Z,51.111256
2022-09-06T12:55:38.122Z,51.111259
2022-09-06T12:56:39.211Z,51.111233
2022-09-06T12:57:38.093Z,51.111225
2022-09-06T12:58:37.996Z,51.111237
2022-09-06T12:59:37.981Z,51.111271
2022-09-06T13:00:37.938Z,51.111263